Time;durP1;ratioP1;P1;durP2;ratioP2;P2;SDS_P1;SDS_P2;PMS_P1;PMS_P2;Temp;Humidity;BMP_temperature;BMP_pressure;BME280_temperature;BME280_humidity;BME280_pressure;Samples;Min_cycle;Max_cycle;Signal;HPM_P1;HPM_P2
2022/02/24 00:00:50;;;;;;;1.10;0.90;;;25.90;55.40;;;;;;5052493;28;20813;-84
2022/02/24 00:03:17;;;;;;;1.53;1.40;;;25.90;55.40;;;;;;5052869;28;20438;-82
2022/02/24 00:05:44;;;;;;;1.90;1.30;;;25.90;55.50;;;;;;5052725;28;20446;-82
2022/02/24 00:08:12;;;;;;;1.20;1.00;;;25.90;55.50;;;;;;5054061;28;20448;-82
2022/02/24 00:10:39;;;;;;;1.93;1.20;;;25.90;55.40;;;;;;5056165;28;20813;-82
2022/02/24 00:13:05;;;;;;;1.30;1.03;;;25.80;55.50;;;;;;5056229;28;20816;-82
2022/02/24 00:15:32;;;;;;;1.30;1.20;;;25.80;55.60;;;;;;5056444;28;20438;-83
2022/02/24 00:18:00;;;;;;;1.57;1.00;;;25.80;55.50;;;;;;5055881;28;20814;-82
2022/02/24 00:20:27;;;;;;;2.43;1.00;;;25.80;55.40;;;;;;5056003;28;20446;-82
2022/02/24 00:22:54;;;;;;;1.43;1.20;;;25.80;55.50;;;;;;5055824;28;20496;-82
2022/02/24 00:25:21;;;;;;;1.10;1.00;;;25.80;55.50;;;;;;5056167;28;20492;-82
2022/02/24 00:27:47;;;;;;;1.40;1.17;;;25.80;55.50;;;;;;5055775;28;20442;-82
2022/02/24 00:30:14;;;;;;;1.30;1.13;;;25.80;55.60;;;;;;5055998;28;20438;-82
2022/02/24 00:32:41;;;;;;;1.20;0.93;;;25.70;55.60;;;;;;5055855;28;20449;-82
2022/02/24 00:35:11;;;;;;;1.30;1.00;;;25.80;55.60;;;;;;5055737;28;20460;-95
2022/02/24 00:37:37;;;;;;;1.50;1.30;;;25.70;55.50;;;;;;5055578;28;20925;-82
2022/02/24 00:40:05;;;;;;;1.63;1.10;;;25.70;55.50;;;;;;5055877;28;20438;-82
2022/02/24 00:42:32;;;;;;;1.20;1.10;;;25.70;55.60;;;;;;5055470;28;21018;-82
2022/02/24 00:44:59;;;;;;;1.73;1.13;;;25.70;55.60;;;;;;5055711;28;20456;-82
2022/02/24 00:47:26;;;;;;;1.20;1.00;;;25.70;55.50;;;;;;5055449;28;20433;-82
2022/02/24 00:49:52;;;;;;;1.30;1.10;;;25.70;55.60;;;;;;5055561;28;20456;-82
2022/02/24 00:52:20;;;;;;;1.20;1.00;;;25.70;55.60;;;;;;5055415;28;20442;-82
2022/02/24 00:54:48;;;;;;;1.00;0.87;;;25.70;55.60;;;;;;5055578;28;20933;-82
2022/02/24 00:57:15;;;;;;;1.20;1.00;;;25.70;55.60;;;;;;5055549;28;20445;-82
2022/02/24 00:59:41;;;;;;;1.83;1.10;;;25.70;55.60;;;;;;5055399;28;20438;-82
2022/02/24 01:02:08;;;;;;;1.47;1.00;;;25.70;55.50;;;;;;5055078;28;20473;-82
2022/02/24 01:04:35;;;;;;;1.60;1.20;;;25.70;55.50;;;;;;5055386;28;20438;-82
2022/02/24 01:07:02;;;;;;;1.17;1.03;;;25.70;55.60;;;;;;5055089;28;20442;-82
2022/02/24 01:09:30;;;;;;;1.30;1.00;;;25.70;55.50;;;;;;5055234;28;20953;-96
2022/02/24 01:11:57;;;;;;;1.40;1.30;;;25.70;55.60;;;;;;5055077;28;20442;-82
2022/02/24 01:14:24;;;;;;;1.40;1.07;;;25.70;55.50;;;;;;5055236;28;20925;-82
2022/02/24 01:16:51;;;;;;;1.10;1.00;;;25.70;55.60;;;;;;5054991;28;20434;-82
2022/02/24 01:19:17;;;;;;;1.40;1.20;;;25.70;55.60;;;;;;5054580;28;20473;-82
2022/02/24 01:21:44;;;;;;;1.20;1.00;;;25.70;55.60;;;;;;5055218;28;20483;-82
2022/02/24 01:24:11;;;;;;;1.20;0.83;;;25.70;55.60;;;;;;5054818;28;20986;-82
2022/02/24 01:26:39;;;;;;;2.27;1.00;;;25.70;55.50;;;;;;5055124;28;20967;-82
2022/02/24 01:29:06;;;;;;;1.57;1.10;;;25.70;55.50;;;;;;5054891;28;20453;-82
2022/02/24 01:31:33;;;;;;;1.10;0.90;;;25.70;55.60;;;;;;5054893;28;20438;-82
2022/02/24 01:33:59;;;;;;;1.17;0.90;;;25.60;55.60;;;;;;5054699;28;20916;-82
2022/02/24 01:36:27;;;;;;;1.37;1.20;;;25.60;55.50;;;;;;5054558;28;20774;-82
2022/02/24 01:38:54;;;;;;;1.70;1.20;;;25.60;55.50;;;;;;5054442;28;20442;-82
2022/02/24 01:41:20;;;;;;;1.10;1.00;;;25.60;55.50;;;;;;5054666;28;20461;-82
2022/02/24 01:43:49;;;;;;;1.30;1.13;;;25.70;55.50;;;;;;5054496;28;20438;-82
2022/02/24 01:46:16;;;;;;;1.90;1.10;;;25.60;55.50;;;;;;5054545;28;20429;-82
2022/02/24 01:48:43;;;;;;;1.37;1.20;;;25.70;55.50;;;;;;5054300;28;20456;-82
2022/02/24 01:51:11;;;;;;;1.23;1.00;;;25.70;55.50;;;;;;5054312;28;20434;-82
2022/02/24 01:53:38;;;;;;;2.37;1.17;;;25.60;55.50;;;;;;5054178;28;20465;-82
2022/02/24 01:56:05;;;;;;;1.10;0.90;;;25.60;55.50;;;;;;5054121;28;20456;-82
2022/02/24 01:58:32;;;;;;;2.03;1.20;;;25.60;55.40;;;;;;5054175;28;20453;-82
2022/02/24 02:01:00;;;;;;;1.10;0.90;;;25.60;55.40;;;;;;5054108;28;20995;-82
2022/02/24 02:03:28;;;;;;;1.83;1.10;;;25.70;55.40;;;;;;5053874;28;20481;-82
2022/02/24 02:05:56;;;;;;;1.30;1.00;;;25.60;55.50;;;;;;5053786;28;20438;-82
2022/02/24 02:08:23;;;;;;;1.77;0.90;;;25.60;55.40;;;;;;5054031;28;20434;-82
2022/02/24 02:10:50;;;;;;;2.43;1.07;;;25.60;55.40;;;;;;5054006;28;20438;-82
2022/02/24 02:13:16;;;;;;;1.10;0.90;;;25.60;55.40;;;;;;5053869;28;20434;-82
2022/02/24 02:15:43;;;;;;;1.27;1.03;;;25.60;55.40;;;;;;5054062;28;20444;-83
2022/02/24 02:18:11;;;;;;;1.50;1.20;;;25.60;55.40;;;;;;5053454;28;20477;-82
2022/02/24 02:20:40;;;;;;;1.20;1.10;;;25.60;55.30;;;;;;5053630;28;20445;-82
2022/02/24 02:23:07;;;;;;;1.43;1.00;;;25.60;55.30;;;;;;5053413;28;20490;-82
2022/02/24 02:25:34;;;;;;;1.63;1.00;;;25.60;55.30;;;;;;5053906;28;20430;-82
2022/02/24 02:28:01;;;;;;;1.30;1.10;;;25.60;55.30;;;;;;5053778;28;20434;-82
2022/02/24 02:30:28;;;;;;;1.10;0.93;;;25.60;55.30;;;;;;5052886;28;20434;-82
2022/02/24 02:32:55;;;;;;;1.20;1.10;;;25.60;55.30;;;;;;5053590;28;20434;-96
2022/02/24 02:35:22;;;;;;;1.13;0.97;;;25.60;55.40;;;;;;5053599;28;20437;-83
2022/02/24 02:37:50;;;;;;;1.43;1.10;;;25.60;55.30;;;;;;5053589;28;20437;-82
2022/02/24 02:40:17;;;;;;;1.30;0.90;;;25.60;55.30;;;;;;5053206;28;20460;-82
2022/02/24 02:42:44;;;;;;;1.67;1.07;;;25.60;55.30;;;;;;5053200;28;20999;-82
2022/02/24 02:45:11;;;;;;;1.60;1.00;;;25.60;55.20;;;;;;5053670;28;20525;-83
2022/02/24 02:47:38;;;;;;;1.30;0.90;;;25.60;55.30;;;;;;5053268;28;20441;-82
2022/02/24 02:50:06;;;;;;;1.17;1.03;;;25.50;55.20;;;;;;5053312;28;20506;-82
2022/02/24 02:52:33;;;;;;;1.47;1.03;;;25.50;55.20;;;;;;5053395;28;20473;-82
2022/02/24 02:55:05;;;;;;;1.93;1.30;;;25.50;55.20;;;;;;5053133;28;20437;-82
2022/02/24 02:57:32;;;;;;;1.63;1.27;;;25.60;55.30;;;;;;5053292;28;20446;-82
2022/02/24 02:59:58;;;;;;;1.50;1.00;;;25.50;55.20;;;;;;5052810;28;20452;-82
2022/02/24 03:02:25;;;;;;;1.40;1.00;;;25.60;55.30;;;;;;5053089;28;20485;-82
2022/02/24 03:04:53;;;;;;;1.10;0.90;;;25.50;55.20;;;;;;5053178;28;20438;-82
2022/02/24 03:07:21;;;;;;;1.37;1.27;;;25.50;55.20;;;;;;5053190;28;20460;-82
2022/02/24 03:09:48;;;;;;;1.20;1.10;;;25.50;55.10;;;;;;5053220;28;20448;-82
2022/02/24 03:12:16;;;;;;;1.37;1.00;;;25.60;55.20;;;;;;5052975;28;20449;-82
2022/02/24 03:14:43;;;;;;;1.20;0.90;;;25.50;55.10;;;;;;5053065;28;20434;-82
2022/02/24 03:17:10;;;;;;;1.10;0.90;;;25.60;55.20;;;;;;5053167;28;20445;-82
2022/02/24 03:19:37;;;;;;;1.20;0.80;;;25.50;55.10;;;;;;5053179;28;20451;-82
2022/02/24 03:22:07;;;;;;;1.30;0.93;;;25.50;55.10;;;;;;5052956;28;20438;-82
2022/02/24 03:24:34;;;;;;;1.47;1.10;;;25.60;55.20;;;;;;5053121;28;20441;-82
2022/02/24 03:27:01;;;;;;;1.27;1.07;;;25.60;55.20;;;;;;5052916;28;20442;-82
2022/02/24 03:29:29;;;;;;;1.40;1.10;;;25.60;55.20;;;;;;5053129;28;20441;-82
2022/02/24 03:31:56;;;;;;;1.20;1.00;;;25.50;55.10;;;;;;5053023;28;20438;-82
2022/02/24 03:34:23;;;;;;;1.50;0.93;;;25.50;55.20;;;;;;5053076;28;20434;-82
2022/02/24 03:36:50;;;;;;;1.30;1.00;;;25.50;55.10;;;;;;5053051;28;20437;-82
2022/02/24 03:39:17;;;;;;;1.30;1.00;;;25.50;55.10;;;;;;5052696;28;20444;-82
2022/02/24 03:41:44;;;;;;;1.37;1.20;;;25.50;55.10;;;;;;5053525;28;20448;-82
2022/02/24 03:44:10;;;;;;;1.10;0.90;;;25.50;55.10;;;;;;5056607;28;20496;-82
2022/02/24 03:46:39;;;;;;;1.30;1.00;;;25.50;55.10;;;;;;5056712;28;20932;-82
2022/02/24 03:49:05;;;;;;;1.40;1.00;;;25.50;55.00;;;;;;5058108;28;20433;-82
2022/02/24 03:51:32;;;;;;;1.50;1.23;;;25.50;55.10;;;;;;5056654;28;20438;-82
2022/02/24 03:53:59;;;;;;;1.30;0.90;;;25.50;55.10;;;;;;5056548;28;20459;-82
2022/02/24 03:56:26;;;;;;;2.70;1.27;;;25.50;55.10;;;;;;5056470;28;20963;-82
2022/02/24 03:58:53;;;;;;;1.20;1.10;;;25.50;55.10;;;;;;5056415;28;20482;-82
2022/02/24 04:01:20;;;;;;;1.93;1.27;;;25.50;55.10;;;;;;5056398;28;20495;-82
2022/02/24 04:03:48;;;;;;;1.50;0.80;;;25.50;55.00;;;;;;5056334;28;20480;-82
2022/02/24 04:06:15;;;;;;;1.30;0.90;;;25.50;55.10;;;;;;5056512;28;20437;-82
2022/02/24 04:08:41;;;;;;;1.40;1.20;;;25.50;55.10;;;;;;5056196;28;20444;-89
2022/02/24 04:11:08;;;;;;;1.60;1.10;;;25.50;55.00;;;;;;5056439;28;20464;-82
2022/02/24 04:13:35;;;;;;;1.00;0.80;;;25.50;55.10;;;;;;5056191;28;20449;-82
2022/02/24 04:16:02;;;;;;;1.40;1.00;;;25.50;55.10;;;;;;5056067;28;20453;-82
2022/02/24 04:18:28;;;;;;;1.30;0.90;;;25.50;55.00;;;;;;5055984;28;21002;-82
2022/02/24 04:20:57;;;;;;;1.40;1.20;;;25.50;55.00;;;;;;5055978;28;20442;-82
2022/02/24 04:23:23;;;;;;;1.30;1.10;;;25.50;55.00;;;;;;5055760;28;20942;-82
2022/02/24 04:25:50;;;;;;;1.17;0.93;;;25.50;55.00;;;;;;5055821;28;20448;-82
2022/02/24 04:28:17;;;;;;;1.20;1.10;;;25.50;55.00;;;;;;5055812;28;20446;-82
2022/02/24 04:30:44;;;;;;;1.10;0.80;;;25.50;55.00;;;;;;5056261;28;20442;-82
2022/02/24 04:33:10;;;;;;;1.10;0.97;;;25.40;55.00;;;;;;5055938;28;20808;-82
2022/02/24 04:35:37;;;;;;;1.20;1.10;;;25.40;55.00;;;;;;5055961;28;20913;-82
2022/02/24 04:38:05;;;;;;;1.27;1.17;;;25.40;55.00;;;;;;5055790;28;20438;-82
2022/02/24 04:40:32;;;;;;;1.10;0.80;;;25.40;55.00;;;;;;5055669;28;20442;-95
2022/02/24 04:42:59;;;;;;;1.20;0.87;;;25.40;55.00;;;;;;5055604;28;20496;-82
2022/02/24 04:45:26;;;;;;;1.27;1.17;;;25.40;55.00;;;;;;5055562;28;20446;-82
2022/02/24 04:47:53;;;;;;;1.30;0.90;;;25.40;55.00;;;;;;5055891;28;20449;-82
2022/02/24 04:50:19;;;;;;;1.53;1.10;;;25.40;55.00;;;;;;5055533;28;20457;-83
2022/02/24 04:52:46;;;;;;;1.30;0.90;;;25.40;55.00;;;;;;5055337;28;20831;-82
2022/02/24 04:55:14;;;;;;;1.10;0.90;;;25.40;55.00;;;;;;5044748;28;20440;-82
2022/02/24 04:57:41;;;;;;;1.30;1.10;;;25.50;55.10;;;;;;5058881;28;20442;-82
2022/02/24 05:00:09;;;;;;;1.10;1.00;;;25.40;55.00;;;;;;5057454;28;20444;-82
2022/02/24 05:02:36;;;;;;;2.00;0.90;;;25.40;55.00;;;;;;5057733;28;20495;-82
2022/02/24 05:05:04;;;;;;;1.10;0.90;;;25.40;55.00;;;;;;5057079;28;20449;-82
2022/02/24 05:07:31;;;;;;;1.23;1.00;;;25.40;55.00;;;;;;5056099;28;20878;-82
2022/02/24 05:09:59;;;;;;;1.10;0.90;;;25.40;55.00;;;;;;5056270;28;20438;-83
2022/02/24 05:12:28;;;;;;;1.07;0.80;;;25.40;55.00;;;;;;5055098;28;20441;-82
2022/02/24 05:14:55;;;;;;;1.13;0.90;;;25.30;55.00;;;;;;5056671;28;20445;-82
2022/02/24 05:17:21;;;;;;;1.30;1.00;;;25.40;55.00;;;;;;5054868;28;20437;-82
2022/02/24 05:19:48;;;;;;;1.40;1.00;;;25.30;55.00;;;;;;5055775;28;20449;-82
2022/02/24 05:22:15;;;;;;;1.03;0.83;;;25.30;55.00;;;;;;5057277;28;20466;-82
2022/02/24 05:24:42;;;;;;;1.57;1.00;;;25.30;55.00;;;;;;5054917;28;20577;-82
2022/02/24 05:27:09;;;;;;;1.43;0.87;;;25.30;55.00;;;;;;5054772;28;20452;-82
2022/02/24 05:29:37;;;;;;;1.87;1.00;;;25.30;55.00;;;;;;5055430;28;20438;-82
2022/02/24 05:32:05;;;;;;;1.27;1.10;;;25.30;55.00;;;;;;5056103;28;20441;-82
2022/02/24 05:34:31;;;;;;;1.33;1.00;;;25.30;55.00;;;;;;5054775;22;20485;-82
2022/02/24 05:36:58;;;;;;;1.43;1.07;;;25.30;55.00;;;;;;5035770;28;20486;-82
2022/02/24 05:39:25;;;;;;;1.20;1.00;;;25.30;55.00;;;;;;5037081;28;20451;-82
2022/02/24 05:41:52;;;;;;;1.30;1.00;;;25.30;55.00;;;;;;5035633;28;20438;-82
2022/02/24 05:44:19;;;;;;;1.30;1.13;;;25.30;55.00;;;;;;5034400;28;20489;-82
2022/02/24 05:46:47;;;;;;;1.27;0.90;;;25.30;55.00;;;;;;5036431;28;20788;-82
2022/02/24 05:49:16;;;;;;;1.20;1.00;;;25.30;55.00;;;;;;5036198;28;20446;-82
2022/02/24 05:51:43;;;;;;;1.20;1.03;;;25.30;55.00;;;;;;5036199;28;20439;-82
2022/02/24 05:54:10;;;;;;;1.10;0.90;;;25.30;55.00;;;;;;5038298;28;20823;-82
2022/02/24 05:56:37;;;;;;;1.63;1.00;;;25.30;55.00;;;;;;5034736;28;20443;-82
2022/02/24 05:59:07;;;;;;;2.80;1.00;;;25.30;55.00;;;;;;5039342;28;20777;-82
2022/02/24 06:01:34;;;;;;;1.30;1.00;;;25.30;55.00;;;;;;5090856;22;20471;-82
2022/02/24 06:04:03;;;;;;;1.50;0.90;;;25.20;55.00;;;;;;5078623;22;20578;-96
2022/02/24 06:06:29;;;;;;;1.07;0.80;;;25.20;55.00;;;;;;5032327;28;20436;-95
2022/02/24 06:08:56;;;;;;;1.63;1.10;;;25.30;55.10;;;;;;5017449;28;20454;-96
2022/02/24 06:11:23;;;;;;;1.20;1.07;;;25.30;55.10;;;;;;5019153;28;20455;-96
2022/02/24 06:13:50;;;;;;;1.20;1.00;;;25.20;55.10;;;;;;5052395;23;20488;-85
2022/02/24 06:16:17;;;;;;;1.30;1.03;;;25.20;54.80;;;;;;5064576;28;21124;-96
2022/02/24 06:18:43;;;;;;;1.10;0.90;;;25.20;55.00;;;;;;5050909;28;20411;-96
2022/02/24 06:21:12;;;;;;;1.47;1.13;;;25.20;55.00;;;;;;5046644;28;20429;-85
2022/02/24 06:23:39;;;;;;;1.20;1.00;;;25.30;55.00;;;;;;5040544;28;20577;-96
2022/02/24 06:26:05;;;;;;;1.20;0.90;;;25.30;55.10;;;;;;5065369;28;20493;-86
2022/02/24 06:28:32;;;;;;;1.20;1.10;;;25.20;55.10;;;;;;5067220;28;20505;-83
2022/02/24 06:30:59;;;;;;;1.73;1.13;;;25.20;55.20;;;;;;5065207;28;20939;-83
2022/02/24 06:33:27;;;;;;;1.20;1.00;;;25.20;55.10;;;;;;5070546;28;20426;-96
2022/02/24 06:35:54;;;;;;;1.40;1.00;;;25.20;55.30;;;;;;5069188;28;20442;-83
2022/02/24 06:38:22;;;;;;;1.40;1.10;;;25.20;55.30;;;;;;5079912;23;20513;-83
2022/02/24 06:40:49;;;;;;;1.63;1.10;;;25.20;55.30;;;;;;5096504;28;20472;-83
2022/02/24 06:43:16;;;;;;;1.43;0.87;;;25.30;55.40;;;;;;5082945;28;20646;-83
2022/02/24 06:45:43;;;;;;;1.10;0.87;;;25.20;55.30;;;;;;5078212;28;20512;-83
2022/02/24 06:50:35;;;;;;;1.53;1.17;;;25.20;55.10;;;;;;5056331;22;20470;-83
2022/02/24 06:53:02;;;;;;;1.50;1.00;;;25.20;55.20;;;;;;5129778;22;20290;-83
2022/02/24 06:55:30;;;;;;;1.27;0.93;;;25.20;55.10;;;;;;5065495;28;20454;-82
2022/02/24 06:57:57;;;;;;;1.10;0.90;;;25.30;55.20;;;;;;5066359;28;20500;-83
2022/02/24 07:00:24;;;;;;;1.70;1.20;;;25.30;55.50;;;;;;5069324;28;20481;-83
2022/02/24 07:02:53;;;;;;;1.93;0.90;;;25.20;55.40;;;;;;5065685;28;20812;-82
2022/02/24 07:05:20;;;;;;;1.10;0.80;;;25.20;55.40;;;;;;5068187;28;20485;-82
2022/02/24 07:07:47;;;;;;;1.30;1.20;;;25.20;55.40;;;;;;5065769;28;20498;-83
2022/02/24 07:10:14;;;;;;;1.00;0.80;;;25.30;55.40;;;;;;5067040;28;20432;-83
2022/02/24 07:12:44;;;;;;;1.30;0.90;;;25.30;55.40;;;;;;5065698;28;20554;-83
2022/02/24 07:15:14;;;;;;;1.30;1.00;;;25.30;55.30;;;;;;5058116;28;20963;-83
2022/02/24 07:17:42;;;;;;;1.20;0.80;;;25.40;54.90;;;;;;5055542;28;20438;-85
2022/02/24 07:20:10;;;;;;;1.73;1.03;;;25.40;55.10;;;;;;5056634;28;20917;-83
2022/02/24 07:22:37;;;;;;;2.33;1.20;;;25.40;54.90;;;;;;5055981;28;20965;-89
2022/02/24 07:25:05;;;;;;;1.00;0.80;;;25.40;55.00;;;;;;5056183;28;20489;-83
2022/02/24 07:27:33;;;;;;;1.73;1.00;;;25.40;55.20;;;;;;5056479;28;20445;-83
2022/02/24 07:30:01;;;;;;;4.70;1.00;;;25.40;55.40;;;;;;5056851;28;20533;-83
2022/02/24 07:32:28;;;;;;;1.20;0.80;;;25.40;55.50;;;;;;5056743;28;20453;-83
2022/02/24 07:34:55;;;;;;;1.50;0.97;;;25.40;55.50;;;;;;5057147;28;20480;-86
2022/02/24 07:37:22;;;;;;;2.20;1.20;;;25.40;55.60;;;;;;5056704;28;20441;-83
2022/02/24 07:39:49;;;;;;;1.70;1.00;;;25.40;55.50;;;;;;5055776;28;20466;-87
2022/02/24 07:42:17;;;;;;;1.30;1.10;;;25.40;55.60;;;;;;5056007;28;20446;-85
2022/02/24 07:44:44;;;;;;;3.20;1.40;;;25.40;51.80;;;;;;5055921;28;20554;-84
2022/02/24 07:47:12;;;;;;;4.60;2.10;;;25.20;50.40;;;;;;5043558;28;20446;-85
2022/02/24 07:49:39;;;;;;;3.40;2.07;;;25.00;49.60;;;;;;5036366;28;20457;-84
2022/02/24 07:52:07;;;;;;;1.83;1.30;;;24.80;49.60;;;;;;5036273;28;20466;-85
2022/02/24 07:54:34;;;;;;;2.10;1.60;;;24.70;49.70;;;;;;5036429;28;20471;-83
2022/02/24 07:57:01;;;;;;;4.33;1.70;;;24.70;50.60;;;;;;5036369;28;20500;-83
2022/02/24 07:59:28;;;;;;;3.03;1.40;;;24.80;51.60;;;;;;5037918;28;20447;-88
2022/02/24 08:01:55;;;;;;;3.10;1.60;;;24.80;52.40;;;;;;5042596;28;20452;-83
2022/02/24 08:04:23;;;;;;;2.90;1.40;;;25.00;53.50;;;;;;5042577;28;20481;-82
2022/02/24 08:06:51;;;;;;;2.00;1.40;;;25.00;53.70;;;;;;5039307;28;20431;-82
2022/02/24 08:09:17;;;;;;;2.13;1.10;;;25.00;54.10;;;;;;5035626;28;20450;-84
2022/02/24 08:12:38;;;;;;;2.70;1.30;;;25.10;54.20;;;;;;5036527;28;20438;-82
2022/02/24 08:14:32;;;;;;;2.47;1.57;;;25.20;54.10;;;;;;5050244;28;20513;-83
2022/02/24 08:16:59;;;;;;;1.40;1.00;;;25.30;54.60;;;;;;5047357;28;20449;-88
2022/02/24 08:19:27;;;;;;;3.73;1.60;;;25.40;53.90;;;;;;5042085;28;21852;-83
2022/02/24 08:21:54;;;;;;;1.97;1.63;;;25.50;53.90;;;;;;5037926;28;20460;-83
2022/02/24 08:24:21;;;;;;;1.73;1.50;;;25.50;53.80;;;;;;5037921;28;20479;-83
2022/02/24 08:26:47;;;;;;;1.50;1.20;;;25.60;53.70;;;;;;5038540;28;20450;-83
2022/02/24 08:29:14;;;;;;;1.93;1.13;;;25.60;53.90;;;;;;5034601;28;20453;-84
2022/02/24 08:31:41;;;;;;;1.73;1.57;;;25.60;53.80;;;;;;5036200;28;20453;-85
2022/02/24 08:34:08;;;;;;;2.57;1.33;;;25.70;53.80;;;;;;5043340;28;20441;-88
2022/02/24 08:36:36;;;;;;;9.57;1.53;;;25.70;53.40;;;;;;5055293;28;20449;-84
2022/02/24 08:39:05;;;;;;;3.50;1.40;;;25.70;53.50;;;;;;5055786;28;20445;-84
2022/02/24 08:41:32;;;;;;;6.87;1.43;;;25.80;53.70;;;;;;5054620;28;20453;-84
2022/02/24 08:43:58;;;;;;;6.27;1.67;;;25.80;53.80;;;;;;5055464;28;20584;-85
2022/02/24 08:46:25;;;;;;;8.30;1.50;;;25.80;53.70;;;;;;5055609;28;20951;-85
2022/02/24 08:48:52;;;;;;;6.10;1.60;;;25.80;53.70;;;;;;5055561;28;20438;-84
2022/02/24 08:51:19;;;;;;;5.10;1.80;;;25.80;53.80;;;;;;5055488;28;20449;-85
2022/02/24 08:53:47;;;;;;;4.43;1.13;;;25.80;53.70;;;;;;5055545;28;20481;-84
2022/02/24 08:56:15;;;;;;;4.93;1.57;;;25.90;53.70;;;;;;5055393;28;20913;-84
2022/02/24 08:58:42;;;;;;;7.00;2.20;;;25.90;53.60;;;;;;5055464;28;20479;-89
2022/02/24 09:01:08;;;;;;;2.63;1.53;;;25.90;53.60;;;;;;5055359;28;20491;-85
2022/02/24 09:03:35;;;;;;;7.50;1.43;;;25.90;53.60;;;;;;5055546;28;20441;-81
2022/02/24 09:06:02;;;;;;;3.00;1.50;;;26.00;53.60;;;;;;5054868;28;20531;-81
2022/02/24 09:08:29;;;;;;;3.47;1.43;;;26.00;53.70;;;;;;5055118;28;20446;-81
2022/02/24 09:10:57;;;;;;;12.50;2.37;;;25.90;53.70;;;;;;5054967;28;20790;-81
2022/02/24 09:13:24;;;;;;;6.80;1.20;;;25.90;53.70;;;;;;5054950;28;20442;-80
2022/02/24 09:15:50;;;;;;;3.50;1.50;;;25.90;53.70;;;;;;5055165;28;20465;-81
2022/02/24 09:18:17;;;;;;;3.17;1.60;;;25.90;53.70;;;;;;5054783;28;20440;-81
2022/02/24 09:20:44;;;;;;;6.07;1.43;;;26.00;53.70;;;;;;5054882;28;20457;-81
2022/02/24 09:23:11;;;;;;;4.93;2.03;;;26.00;53.70;;;;;;5054612;28;20457;-81
2022/02/24 09:25:38;;;;;;;3.83;1.20;;;26.00;53.80;;;;;;5054807;28;20576;-81
2022/02/24 09:28:06;;;;;;;2.80;1.73;;;26.00;53.70;;;;;;5054711;28;20975;-81
2022/02/24 09:30:33;;;;;;;4.80;1.30;;;25.90;53.80;;;;;;5054831;28;20441;-80
2022/02/24 09:33:00;;;;;;;9.83;1.77;;;25.90;53.80;;;;;;5054466;28;20951;-81
2022/02/24 09:35:27;;;;;;;5.30;1.90;;;25.90;53.80;;;;;;5054570;28;20441;-81
2022/02/24 09:37:54;;;;;;;4.27;1.50;;;25.80;54.50;;;;;;5053347;28;20452;-81
2022/02/24 09:40:22;;;;;;;7.17;1.53;;;25.80;53.90;;;;;;5054177;28;20438;-81
2022/02/24 09:42:49;;;;;;;9.50;1.53;;;25.90;54.20;;;;;;5054533;28;20446;-80
2022/02/24 09:45:17;;;;;;;4.00;1.53;;;25.80;53.90;;;;;;5054340;28;20492;-80
2022/02/24 09:47:46;;;;;;;5.80;1.63;;;25.90;53.90;;;;;;5054340;28;20452;-81
2022/02/24 09:50:12;;;;;;;3.80;1.43;;;25.80;53.90;;;;;;5053754;28;20445;-81
2022/02/24 09:52:39;;;;;;;8.10;2.40;;;25.80;54.00;;;;;;5053676;28;20468;-81
2022/02/24 09:55:07;;;;;;;12.00;1.93;;;25.80;54.00;;;;;;5054155;28;20979;-82
2022/02/24 09:57:33;;;;;;;2.60;1.43;;;25.90;53.90;;;;;;5053381;28;20534;-82
2022/02/24 10:00:00;;;;;;;7.60;2.17;;;25.90;53.90;;;;;;5053647;28;20481;-82
2022/02/24 10:02:29;;;;;;;6.30;1.40;;;26.00;53.80;;;;;;5054333;28;20437;-82
2022/02/24 10:05:09;;;;;;;6.60;1.30;;;26.20;53.70;;;;;;5053992;28;20481;-82
2022/02/24 10:07:38;;;;;;;2.50;1.30;;;26.30;53.50;;;;;;5053758;28;20441;-82
2022/02/24 10:10:26;;;;;;;4.53;1.70;;;26.40;53.50;;;;;;5053954;28;20442;-82
2022/02/24 10:13:07;;;;;;;2.03;1.23;;;26.50;53.40;;;;;;5054063;28;20446;-84
2022/02/24 10:15:34;;;;;;;6.97;1.67;;;26.50;53.40;;;;;;5036583;28;20450;-87
2022/02/24 10:18:20;;;;;;;9.53;2.23;;;26.50;53.50;;;;;;5033240;28;20453;-85
2022/02/24 10:20:48;;;;;;;6.20;1.77;;;26.60;54.10;;;;;;5028678;28;20444;-85
2022/02/24 10:23:16;;;;;;;5.70;2.00;;;26.70;53.40;;;;;;5037091;28;20469;-85
2022/02/24 10:25:45;;;;;;;3.80;1.47;;;26.90;53.20;;;;;;5047302;28;20486;-85
2022/02/24 10:28:33;;;;;;;5.60;1.60;;;27.40;53.00;;;;;;5049836;28;20442;-85
2022/02/24 10:31:09;;;;;;;4.00;1.37;;;27.60;52.50;;;;;;5049689;28;20438;-85
2022/02/24 10:33:38;;;;;;;8.67;1.93;;;27.70;52.40;;;;;;5043952;28;20445;-85
2022/02/24 10:36:17;;;;;;;3.80;1.30;;;27.60;52.50;;;;;;5039652;28;20538;-85
2022/02/24 10:38:45;;;;;;;3.73;1.60;;;27.50;52.60;;;;;;5052809;28;20448;-85
2022/02/24 10:41:13;;;;;;;6.13;1.60;;;27.30;52.70;;;;;;5052561;28;20446;-85
2022/02/24 10:43:40;;;;;;;6.43;1.63;;;27.20;52.80;;;;;;5049097;28;20446;-84
2022/02/24 10:46:08;;;;;;;6.30;1.63;;;27.10;53.00;;;;;;5035374;28;20490;-85
2022/02/24 10:48:50;;;;;;;5.93;2.20;;;27.00;53.20;;;;;;5035466;28;20446;-85
2022/02/24 10:51:22;;;;;;;7.60;1.60;;;26.80;53.40;;;;;;5047509;28;21304;-84
2022/02/24 10:54:01;;;;;;;4.20;1.20;;;26.70;53.60;;;;;;5040908;28;20462;-85
2022/02/24 10:56:29;;;;;;;2.87;1.40;;;26.70;53.80;;;;;;5034650;28;20435;-93
2022/02/24 10:58:55;;;;;;;4.57;1.67;;;26.60;54.00;;;;;;5033222;28;20934;-84
2022/02/24 11:01:23;;;;;;;5.77;1.70;;;26.50;54.10;;;;;;5033766;28;20445;-84
2022/02/24 11:03:53;;;;;;;3.13;1.33;;;26.60;54.20;;;;;;5033465;28;20431;-91
2022/02/24 11:06:22;;;;;;;6.27;1.57;;;26.40;54.30;;;;;;5032378;28;20493;-92
2022/02/24 11:08:50;;;;;;;10.33;1.80;;;26.40;54.40;;;;;;5033452;28;20455;-85
2022/02/24 11:11:19;;;;;;;6.80;1.63;;;26.40;54.50;;;;;;5033337;28;20439;-84
2022/02/24 11:13:47;;;;;;;6.57;1.63;;;26.30;54.50;;;;;;5033416;28;20438;-85
2022/02/24 11:16:14;;;;;;;7.77;1.87;;;26.30;54.50;;;;;;5033496;28;20521;-84
2022/02/24 11:18:41;;;;;;;2.77;1.50;;;26.30;54.60;;;;;;5033200;28;20438;-84
2022/02/24 11:21:12;;;;;;;3.63;1.57;;;26.20;54.60;;;;;;5032836;28;20470;-85
2022/02/24 11:23:39;;;;;;;3.80;1.90;;;26.20;54.60;;;;;;5033494;28;20447;-84
2022/02/24 11:26:35;;;;;;;4.37;1.30;;;26.20;54.60;;;;;;5033174;28;20490;-85
2022/02/24 11:29:09;;;;;;;3.63;1.53;;;26.20;54.60;;;;;;5026231;28;20451;-84
2022/02/24 11:31:46;;;;;;;8.03;1.40;;;26.20;54.60;;;;;;5033304;28;20814;-85
2022/02/24 11:34:13;;;;;;;3.23;1.40;;;26.20;54.70;;;;;;5033161;28;20457;-94
2022/02/24 11:36:43;;;;;;;3.37;1.60;;;26.20;55.30;;;;;;5033113;28;20449;-84
2022/02/24 11:39:12;;;;;;;7.23;1.53;;;26.10;54.60;;;;;;5033007;28;20438;-85
2022/02/24 11:41:53;;;;;;;5.20;1.60;;;26.30;54.50;;;;;;5032817;28;20798;-88
2022/02/24 11:44:37;;;;;;;4.10;2.03;;;26.40;54.50;;;;;;5033834;28;20442;-84
2022/02/24 11:47:07;;;;;;;4.27;1.70;;;26.40;54.70;;;;;;5033319;28;20803;-83
2022/02/24 11:50:08;;;;;;;5.27;1.50;;;26.50;54.90;;;;;;5032928;28;20441;-83
2022/02/24 11:52:48;;;;;;;5.17;1.90;;;26.50;54.80;;;;;;5032145;28;20462;-83
2022/02/24 11:55:44;;;;;;;2.80;1.60;;;26.50;54.90;;;;;;5033077;28;20478;-86
2022/02/24 11:58:50;;;;;;;5.67;1.83;;;26.60;54.90;;;;;;5032786;28;20438;-94
2022/02/24 12:01:23;;;;;;;2.77;1.30;;;26.50;54.80;;;;;;5032683;28;20434;-86
2022/02/24 12:04:05;;;;;;;4.80;1.73;;;26.60;54.90;;;;;;5035328;28;20469;-83
2022/02/24 12:06:56;;;;;;;4.27;1.50;;;26.70;55.00;;;;;;5036487;28;20833;-84
2022/02/24 12:09:26;;;;;;;2.27;1.70;;;26.70;55.20;;;;;;5034266;28;20451;-83
2022/02/24 12:11:54;;;;;;;8.10;1.83;;;26.70;55.20;;;;;;5036263;28;20446;-94
2022/02/24 12:14:55;;;;;;;6.00;1.97;;;26.70;55.40;;;;;;5036471;28;20446;-84
2022/02/24 12:17:24;;;;;;;3.10;1.37;;;26.80;55.60;;;;;;5036115;28;20447;-83
2022/02/24 12:19:54;;;;;;;2.67;1.70;;;26.80;55.70;;;;;;5036066;28;20795;-93
2022/02/24 12:22:36;;;;;;;3.70;1.40;;;26.90;55.80;;;;;;5036182;28;20466;-84
2022/02/24 12:25:11;;;;;;;2.73;1.60;;;27.00;55.90;;;;;;5036268;28;20817;-83
2022/02/24 12:27:40;;;;;;;5.90;1.90;;;27.00;56.00;;;;;;5036258;28;20442;-83
2022/02/24 12:30:30;;;;;;;1.50;1.30;;;27.10;56.30;;;;;;5036401;28;20533;-83
2022/02/24 12:33:08;;;;;;;2.60;1.50;;;27.00;56.50;;;;;;5036590;28;20500;-88
2022/02/24 12:35:37;;;;;;;4.23;1.30;;;26.90;57.00;;;;;;5036390;28;20804;-84
2022/02/24 12:38:05;;;;;;;2.50;1.80;;;26.90;57.60;;;;;;5036943;28;20445;-83
2022/02/24 12:40:35;;;;;;;3.50;1.53;;;27.10;58.00;;;;;;5039373;28;20445;-83
2022/02/24 12:43:04;;;;;;;5.60;1.97;;;27.00;58.30;;;;;;5036702;28;20936;-83
2022/02/24 12:45:32;;;;;;;3.70;1.40;;;27.00;58.30;;;;;;5039441;28;20846;-83
2022/02/24 12:48:00;;;;;;;5.90;2.43;;;;;;;;;;5036251;28;20471;-84
2022/02/24 12:50:33;;;;;;;7.70;1.93;;;26.90;58.90;;;;;;5036005;28;20443;-92
2022/02/24 12:53:10;;;;;;;5.30;2.60;;;26.80;62.50;;;;;;5035686;28;20791;-89
2022/02/24 12:55:39;;;;;;;3.33;1.50;;;26.50;59.70;;;;;;5036016;28;20442;-88
2022/02/24 12:58:07;;;;;;;4.20;2.07;;;26.20;57.90;;;;;;5035699;28;20474;-84